sensor_id;sensor_type;location;lat;lon;timestamp;P1;durP1;ratioP1;P2;durP2;ratioP2
57321;SDS011;43159;51.006;18.224;2023-11-18T00:04:36;11.10;;;5.30;;
57321;SDS011;43159;51.006;18.224;2023-11-18T00:14:20;10.20;;;4.50;;
57321;SDS011;43159;51.006;18.224;2023-11-18T00:24:03;17.00;;;7.20;;
57321;SDS011;43159;51.006;18.224;2023-11-18T00:33:46;15.40;;;6.20;;
57321;SDS011;43159;51.006;18.224;2023-11-18T00:43:30;14.90;;;6.70;;
57321;SDS011;43159;51.006;18.224;2023-11-18T00:53:17;20.50;;;9.20;;
57321;SDS011;43159;51.006;18.224;2023-11-18T01:02:59;13.00;;;2.90;;
57321;SDS011;43159;51.006;18.224;2023-11-18T01:12:41;16.30;;;7.60;;
57321;SDS011;43159;51.006;18.224;2023-11-18T01:22:33;19.80;;;5.40;;
57321;SDS011;43159;51.006;18.224;2023-11-18T01:32:16;14.00;;;5.70;;
57321;SDS011;43159;51.006;18.224;2023-11-18T01:42:01;11.00;;;4.10;;
57321;SDS011;43159;51.006;18.224;2023-11-18T01:51:49;11.10;;;3.80;;
57321;SDS011;43159;51.006;18.224;2023-11-18T02:09:01;9.10;;;3.50;;
57321;SDS011;43159;51.006;18.224;2023-11-18T02:18:48;8.10;;;2.50;;
57321;SDS011;43159;51.006;18.224;2023-11-18T02:28:31;9.70;;;3.10;;
57321;SDS011;43159;51.006;18.224;2023-11-18T02:38:35;8.60;;;2.60;;
57321;SDS011;43159;51.006;18.224;2023-11-18T02:48:23;9.90;;;2.40;;
57321;SDS011;43159;51.006;18.224;2023-11-18T02:58:06;9.10;;;2.70;;
57321;SDS011;43159;51.006;18.224;2023-11-18T03:07:51;5.50;;;2.20;;
57321;SDS011;43159;51.006;18.224;2023-11-18T03:17:44;9.40;;;2.90;;
57321;SDS011;43159;51.006;18.224;2023-11-18T03:27:31;4.20;;;1.60;;
57321;SDS011;43159;51.006;18.224;2023-11-18T03:37:13;9.20;;;1.90;;
57321;SDS011;43159;51.006;18.224;2023-11-18T03:46:55;10.60;;;3.20;;
57321;SDS011;43159;51.006;18.224;2023-11-18T03:56:39;4.50;;;2.00;;
57321;SDS011;43159;51.006;18.224;2023-11-18T04:06:22;12.00;;;4.50;;
57321;SDS011;43159;51.006;18.224;2023-11-18T04:16:14;10.50;;;3.90;;
57321;SDS011;43159;51.006;18.224;2023-11-18T04:26:02;11.60;;;4.30;;
57321;SDS011;43159;51.006;18.224;2023-11-18T04:35:46;19.50;;;8.10;;
57321;SDS011;43159;51.006;18.224;2023-11-18T04:45:30;20.90;;;9.20;;
57321;SDS011;43159;51.006;18.224;2023-11-18T04:55:12;23.70;;;7.50;;
57321;SDS011;43159;51.006;18.224;2023-11-18T05:05:02;17.00;;;7.30;;
57321;SDS011;43159;51.006;18.224;2023-11-18T05:14:47;24.40;;;11.10;;
57321;SDS011;43159;51.006;18.224;2023-11-18T05:24:31;34.90;;;11.90;;
57321;SDS011;43159;51.006;18.224;2023-11-18T05:34:20;31.70;;;12.80;;
57321;SDS011;43159;51.006;18.224;2023-11-18T05:44:10;35.20;;;12.60;;
57321;SDS011;43159;51.006;18.224;2023-11-18T05:54:06;30.40;;;12.80;;
57321;SDS011;43159;51.006;18.224;2023-11-18T06:03:49;29.50;;;11.70;;
57321;SDS011;43159;51.006;18.224;2023-11-18T06:13:41;23.80;;;9.10;;
57321;SDS011;43159;51.006;18.224;2023-11-18T06:23:26;18.90;;;9.10;;
57321;SDS011;43159;51.006;18.224;2023-11-18T06:33:09;21.20;;;8.80;;
57321;SDS011;43159;51.006;18.224;2023-11-18T06:42:52;40.20;;;12.30;;
57321;SDS011;43159;51.006;18.224;2023-11-18T06:52:41;27.40;;;12.40;;
57321;SDS011;43159;51.006;18.224;2023-11-18T07:02:34;26.50;;;10.30;;
57321;SDS011;43159;51.006;18.224;2023-11-18T07:12:17;19.10;;;8.50;;
57321;SDS011;43159;51.006;18.224;2023-11-18T07:22:01;11.90;;;4.20;;
57321;SDS011;43159;51.006;18.224;2023-11-18T07:31:48;11.40;;;4.10;;
57321;SDS011;43159;51.006;18.224;2023-11-18T07:41:41;10.40;;;4.20;;
57321;SDS011;43159;51.006;18.224;2023-11-18T07:51:29;9.80;;;3.10;;
57321;SDS011;43159;51.006;18.224;2023-11-18T08:01:15;10.40;;;4.30;;
57321;SDS011;43159;51.006;18.224;2023-11-18T08:11:09;7.10;;;2.30;;
57321;SDS011;43159;51.006;18.224;2023-11-18T08:20:56;10.40;;;4.20;;
57321;SDS011;43159;51.006;18.224;2023-11-18T08:30:40;9.00;;;2.20;;
57321;SDS011;43159;51.006;18.224;2023-11-18T08:47:47;9.50;;;3.50;;
57321;SDS011;43159;51.006;18.224;2023-11-18T08:55:10;13.00;;;4.90;;
57321;SDS011;43159;51.006;18.224;2023-11-18T09:06:00;11.20;;;4.50;;
57321;SDS011;43159;51.006;18.224;2023-11-18T09:16:14;10.90;;;3.40;;
57321;SDS011;43159;51.006;18.224;2023-11-18T09:26:10;11.40;;;5.00;;
57321;SDS011;43159;51.006;18.224;2023-11-18T09:35:58;10.60;;;4.40;;
57321;SDS011;43159;51.006;18.224;2023-11-18T09:45:49;10.20;;;3.80;;
57321;SDS011;43159;51.006;18.224;2023-11-18T09:55:42;12.20;;;5.00;;
57321;SDS011;43159;51.006;18.224;2023-11-18T10:05:35;10.60;;;4.50;;
57321;SDS011;43159;51.006;18.224;2023-11-18T10:15:29;13.10;;;5.20;;
57321;SDS011;43159;51.006;18.224;2023-11-18T10:25:46;14.60;;;7.50;;
57321;SDS011;43159;51.006;18.224;2023-11-18T10:36:03;15.40;;;6.50;;
57321;SDS011;43159;51.006;18.224;2023-11-18T10:45:51;15.90;;;6.80;;
57321;SDS011;43159;51.006;18.224;2023-11-18T11:03:15;14.60;;;7.10;;
57321;SDS011;43159;51.006;18.224;2023-11-18T11:13:07;17.40;;;8.90;;
57321;SDS011;43159;51.006;18.224;2023-11-18T11:23:30;23.90;;;10.80;;
57321;SDS011;43159;51.006;18.224;2023-11-18T11:33:46;20.00;;;9.60;;
57321;SDS011;43159;51.006;18.224;2023-11-18T11:43:48;24.70;;;7.80;;
57321;SDS011;43159;51.006;18.224;2023-11-18T11:53:58;16.80;;;8.60;;
57321;SDS011;43159;51.006;18.224;2023-11-18T12:04:11;18.20;;;7.40;;
57321;SDS011;43159;51.006;18.224;2023-11-18T12:14:14;13.90;;;6.30;;
57321;SDS011;43159;51.006;18.224;2023-11-18T12:24:46;12.40;;;5.60;;
57321;SDS011;43159;51.006;18.224;2023-11-18T12:35:24;16.00;;;6.30;;
57321;SDS011;43159;51.006;18.224;2023-11-18T12:55:49;19.50;;;9.50;;
57321;SDS011;43159;51.006;18.224;2023-11-18T13:05:36;28.10;;;10.00;;
57321;SDS011;43159;51.006;18.224;2023-11-18T13:15:20;18.70;;;9.90;;
57321;SDS011;43159;51.006;18.224;2023-11-18T13:25:26;33.90;;;12.50;;
57321;SDS011;43159;51.006;18.224;2023-11-18T13:35:14;29.70;;;12.70;;
57321;SDS011;43159;51.006;18.224;2023-11-18T13:45:05;29.80;;;10.70;;
57321;SDS011;43159;51.006;18.224;2023-11-18T13:54:51;34.90;;;14.00;;
57321;SDS011;43159;51.006;18.224;2023-11-18T14:04:41;23.50;;;12.60;;
57321;SDS011;43159;51.006;18.224;2023-11-18T14:14:36;21.00;;;10.40;;
57321;SDS011;43159;51.006;18.224;2023-11-18T14:24:26;19.80;;;8.80;;
57321;SDS011;43159;51.006;18.224;2023-11-18T14:34:10;19.70;;;7.80;;
57321;SDS011;43159;51.006;18.224;2023-11-18T14:43:56;34.70;;;18.30;;
57321;SDS011;43159;51.006;18.224;2023-11-18T14:53:40;20.60;;;10.90;;
57321;SDS011;43159;51.006;18.224;2023-11-18T15:03:26;26.70;;;14.60;;
57321;SDS011;43159;51.006;18.224;2023-11-18T15:13:09;27.50;;;14.20;;
57321;SDS011;43159;51.006;18.224;2023-11-18T15:22:59;58.70;;;21.70;;
57321;SDS011;43159;51.006;18.224;2023-11-18T15:32:44;32.20;;;18.10;;
57321;SDS011;43159;51.006;18.224;2023-11-18T15:42:39;21.70;;;10.80;;
57321;SDS011;43159;51.006;18.224;2023-11-18T15:52:29;21.40;;;10.70;;
57321;SDS011;43159;51.006;18.224;2023-11-18T16:02:12;39.70;;;18.80;;
57321;SDS011;43159;51.006;18.224;2023-11-18T16:11:57;31.70;;;13.70;;
57321;SDS011;43159;51.006;18.224;2023-11-18T16:21:42;39.60;;;16.80;;
57321;SDS011;43159;51.006;18.224;2023-11-18T16:31:26;61.80;;;24.60;;
57321;SDS011;43159;51.006;18.224;2023-11-18T16:41:17;43.00;;;18.50;;
57321;SDS011;43159;51.006;18.224;2023-11-18T16:58:20;40.40;;;20.60;;
57321;SDS011;43159;51.006;18.224;2023-11-18T17:08:08;27.80;;;11.60;;
57321;SDS011;43159;51.006;18.224;2023-11-18T17:17:51;34.20;;;17.50;;
57321;SDS011;43159;51.006;18.224;2023-11-18T17:27:43;36.70;;;14.30;;
57321;SDS011;43159;51.006;18.224;2023-11-18T17:37:37;43.20;;;18.70;;
57321;SDS011;43159;51.006;18.224;2023-11-18T17:47:20;53.60;;;19.90;;
57321;SDS011;43159;51.006;18.224;2023-11-18T17:57:03;77.30;;;23.60;;
57321;SDS011;43159;51.006;18.224;2023-11-18T18:06:45;83.60;;;30.30;;
57321;SDS011;43159;51.006;18.224;2023-11-18T18:16:28;36.70;;;21.80;;
57321;SDS011;43159;51.006;18.224;2023-11-18T18:33:27;39.30;;;21.40;;
57321;SDS011;43159;51.006;18.224;2023-11-18T18:43:10;72.80;;;35.30;;
57321;SDS011;43159;51.006;18.224;2023-11-18T18:53:00;86.80;;;35.20;;
57321;SDS011;43159;51.006;18.224;2023-11-18T19:02:42;69.10;;;29.20;;
57321;SDS011;43159;51.006;18.224;2023-11-18T19:12:27;35.50;;;18.60;;
57321;SDS011;43159;51.006;18.224;2023-11-18T19:22:14;47.90;;;18.90;;
57321;SDS011;43159;51.006;18.224;2023-11-18T19:32:02;41.10;;;19.40;;
57321;SDS011;43159;51.006;18.224;2023-11-18T19:41:45;75.00;;;29.50;;
57321;SDS011;43159;51.006;18.224;2023-11-18T19:51:31;121.90;;;46.10;;
57321;SDS011;43159;51.006;18.224;2023-11-18T20:01:14;94.70;;;34.40;;
57321;SDS011;43159;51.006;18.224;2023-11-18T20:10:58;94.20;;;38.00;;
57321;SDS011;43159;51.006;18.224;2023-11-18T20:20:45;89.50;;;31.10;;
57321;SDS011;43159;51.006;18.224;2023-11-18T20:30:32;78.40;;;27.90;;
57321;SDS011;43159;51.006;18.224;2023-11-18T20:40:16;93.00;;;35.70;;
57321;SDS011;43159;51.006;18.224;2023-11-18T20:50:09;104.10;;;38.40;;
57321;SDS011;43159;51.006;18.224;2023-11-18T21:00:00;68.40;;;28.80;;
57321;SDS011;43159;51.006;18.224;2023-11-18T21:09:42;97.20;;;34.90;;
57321;SDS011;43159;51.006;18.224;2023-11-18T21:19:25;70.90;;;27.60;;
57321;SDS011;43159;51.006;18.224;2023-11-18T21:29:17;79.70;;;27.60;;
57321;SDS011;43159;51.006;18.224;2023-11-18T21:39:00;51.50;;;22.10;;
57321;SDS011;43159;51.006;18.224;2023-11-18T21:48:43;62.30;;;27.80;;
57321;SDS011;43159;51.006;18.224;2023-11-18T21:58:30;60.10;;;24.50;;
57321;SDS011;43159;51.006;18.224;2023-11-18T22:08:15;63.90;;;26.60;;
57321;SDS011;43159;51.006;18.224;2023-11-18T22:18:02;69.50;;;28.10;;
57321;SDS011;43159;51.006;18.224;2023-11-18T22:27:46;127.30;;;33.70;;
57321;SDS011;43159;51.006;18.224;2023-11-18T22:37:33;46.90;;;20.10;;
57321;SDS011;43159;51.006;18.224;2023-11-18T22:47:21;65.20;;;17.80;;
57321;SDS011;43159;51.006;18.224;2023-11-18T22:57:05;48.60;;;19.80;;
57321;SDS011;43159;51.006;18.224;2023-11-18T23:06:53;44.00;;;19.40;;
57321;SDS011;43159;51.006;18.224;2023-11-18T23:16:43;51.20;;;20.90;;
57321;SDS011;43159;51.006;18.224;2023-11-18T23:26:27;28.00;;;13.50;;
57321;SDS011;43159;51.006;18.224;2023-11-18T23:36:09;57.60;;;19.60;;
57321;SDS011;43159;51.006;18.224;2023-11-18T23:46:00;48.30;;;19.60;;
57321;SDS011;43159;51.006;18.224;2023-11-18T23:55:43;49.50;;;19.90;;
